Time;durP1;ratioP1;P1;durP2;ratioP2;P2;SDS_P1;SDS_P2;PMS_P1;PMS_P2;Temp;Humidity;BMP_temperature;BMP_pressure;BME280_temperature;BME280_humidity;BME280_pressure;Samples;Min_cycle;Max_cycle;Signal;HPM_P1;HPM_P2
2022/09/16 00:00:36;;;;;;;0.00;0.00;;;11.60;99.90;;;;;;5070101;28;20374;-81
2022/09/16 00:03:02;;;;;;;0.00;0.00;;;11.60;99.90;;;;;;5087047;28;20144;-81
2022/09/16 00:05:28;;;;;;;0.00;0.00;;;11.60;99.90;;;;;;5070181;28;20128;-81
2022/09/16 00:07:57;;;;;;;0.00;0.00;;;11.60;99.90;;;;;;5086884;28;20041;-80
2022/09/16 00:10:25;;;;;;;0.00;0.00;;;11.60;99.90;;;;;;5069924;28;20060;-81
2022/09/16 00:12:51;;;;;;;0.00;0.00;;;11.60;99.90;;;;;;5069705;28;20049;-81
2022/09/16 00:15:17;;;;;;;0.10;0.00;;;11.60;99.90;;;;;;5053035;28;20102;-81
2022/09/16 00:17:42;;;;;;;0.00;0.00;;;11.60;99.90;;;;;;5069643;28;20040;-81
2022/09/16 00:20:08;;;;;;;0.00;0.00;;;11.60;99.90;;;;;;5069821;28;20388;-81
2022/09/16 00:22:34;;;;;;;0.00;0.00;;;11.60;99.90;;;;;;5086578;28;20049;-81
2022/09/16 00:25:00;;;;;;;0.00;0.00;;;11.60;99.90;;;;;;5069946;28;20057;-81
2022/09/16 00:27:28;;;;;;;0.00;0.00;;;11.60;99.90;;;;;;5070099;28;20051;-80
2022/09/16 00:29:54;;;;;;;0.00;0.00;;;11.60;99.90;;;;;;5069630;28;20111;-81
2022/09/16 00:32:19;;;;;;;0.00;0.00;;;11.60;99.90;;;;;;5069923;28;20485;-81
2022/09/16 00:34:45;;;;;;;0.00;0.00;;;11.70;99.90;;;;;;5086617;28;20053;-81
2022/09/16 00:37:11;;;;;;;0.00;0.00;;;11.60;99.90;;;;;;5086094;28;20461;-81
2022/09/16 00:39:36;;;;;;;0.00;0.00;;;11.70;99.90;;;;;;5069342;28;20143;-81
2022/09/16 00:42:04;;;;;;;0.00;0.00;;;11.70;99.90;;;;;;5069221;28;20099;-81
2022/09/16 00:45:01;;;;;;;0.00;0.00;;;11.70;99.90;;;;;;5086165;28;20083;-81
2022/09/16 00:47:34;;;;;;;0.00;0.00;;;11.70;99.90;;;;;;5086391;28;20147;-81
2022/09/16 00:50:12;;;;;;;0.00;0.00;;;11.70;99.90;;;;;;5069113;28;20045;-81
2022/09/16 00:52:42;;;;;;;0.00;0.00;;;11.70;99.90;;;;;;5036745;28;20481;-81
2022/09/16 00:55:12;;;;;;;0.00;0.00;;;11.80;99.90;;;;;;5035818;28;20135;-81
2022/09/16 00:57:40;;;;;;;0.00;0.00;;;11.80;99.90;;;;;;5085870;28;20390;-81
2022/09/16 01:00:11;;;;;;;0.00;0.00;;;11.80;99.90;;;;;;5069245;28;20530;-81
2022/09/16 01:02:38;;;;;;;0.00;0.00;;;11.80;99.90;;;;;;5069644;28;20136;-81
2022/09/16 01:05:25;;;;;;;0.32;0.05;;;11.80;99.90;;;;;;5085728;28;20454;-81
2022/09/16 01:07:53;;;;;;;0.00;0.00;;;11.80;99.90;;;;;;5067215;28;20045;-81
2022/09/16 01:10:23;;;;;;;0.00;0.00;;;11.80;99.90;;;;;;5068008;28;20049;-81
2022/09/16 01:12:55;;;;;;;0.00;0.00;;;11.80;99.90;;;;;;5086431;28;20462;-81
2022/09/16 01:15:47;;;;;;;0.00;0.00;;;11.80;99.90;;;;;;5069159;28;20067;-81
2022/09/16 01:18:35;;;;;;;0.00;0.00;;;11.80;99.90;;;;;;5069246;28;20053;-81
2022/09/16 01:21:25;;;;;;;0.00;0.00;;;11.90;99.90;;;;;;5035739;28;20106;-81
2022/09/16 01:24:09;;;;;;;0.00;0.00;;;11.90;99.90;;;;;;5069066;28;20137;-81
2022/09/16 01:26:58;;;;;;;0.00;0.00;;;11.90;99.90;;;;;;5085872;28;20485;-81
2022/09/16 01:29:48;;;;;;;0.00;0.00;;;11.90;99.90;;;;;;5018118;28;20691;-81
2022/09/16 01:32:24;;;;;;;0.00;0.00;;;11.90;99.90;;;;;;5034502;28;20485;-81
2022/09/16 01:35:01;;;;;;;0.00;0.00;;;11.90;99.90;;;;;;5034715;28;20052;-81
2022/09/16 01:37:46;;;;;;;0.00;0.00;;;11.90;99.90;;;;;;5034356;28;20045;-81
2022/09/16 01:40:20;;;;;;;0.00;0.00;;;11.90;99.90;;;;;;5034716;28;20049;-81
2022/09/16 01:43:14;;;;;;;0.00;0.00;;;11.90;99.90;;;;;;5034344;28;20416;-81
2022/09/16 01:45:59;;;;;;;0.00;0.00;;;12.00;99.90;;;;;;4956041;28;20054;-81
2022/09/16 01:48:40;;;;;;;0.00;0.00;;;11.90;99.90;;;;;;4940309;28;20499;-81
2022/09/16 01:51:20;;;;;;;0.00;0.00;;;11.90;99.90;;;;;;4940365;28;20058;-81
2022/09/16 01:53:55;;;;;;;0.00;0.00;;;11.80;99.90;;;;;;4956398;28;20073;-81
2022/09/16 01:56:39;;;;;;;0.00;0.00;;;11.80;99.90;;;;;;4974821;28;20050;-80
2022/09/16 01:59:16;;;;;;;0.00;0.00;;;11.70;99.90;;;;;;4960334;28;20122;-80
2022/09/16 02:02:08;;;;;;;0.00;0.00;;;11.80;99.90;;;;;;4943941;28;20521;-81
2022/09/16 02:04:43;;;;;;;0.00;0.00;;;11.80;99.90;;;;;;4959925;28;20228;-81
2022/09/16 02:07:11;;;;;;;0.00;0.00;;;11.80;99.90;;;;;;4963046;28;20538;-81
2022/09/16 02:09:45;;;;;;;0.00;0.00;;;11.80;99.90;;;;;;4962997;28;20069;-81
2022/09/16 02:12:20;;;;;;;0.00;0.00;;;11.90;99.90;;;;;;4963100;28;20049;-81
2022/09/16 02:14:47;;;;;;;;;;;11.90;99.90;;;;;;4979272;28;20065;-81
2022/09/16 02:17:20;;;;;;;0.00;0.00;;;11.80;99.90;;;;;;4978553;28;19921;-81
2022/09/16 02:19:52;;;;;;;0.00;0.00;;;11.90;99.90;;;;;;4963052;28;20062;-81
2022/09/16 02:22:26;;;;;;;0.00;0.00;;;11.90;99.90;;;;;;4989334;28;20063;-81
2022/09/16 02:24:52;;;;;;;0.00;0.00;;;11.90;99.90;;;;;;5089066;28;20049;-81
2022/09/16 02:27:21;;;;;;;0.00;0.00;;;11.90;99.90;;;;;;5072157;28;20044;-81
2022/09/16 02:29:52;;;;;;;0.00;0.00;;;11.90;99.90;;;;;;5055194;28;20045;-81
2022/09/16 02:32:20;;;;;;;0.00;0.00;;;11.90;99.90;;;;;;5072368;28;20485;-81
2022/09/16 02:34:49;;;;;;;0.00;0.00;;;11.80;99.90;;;;;;5071982;28;20056;-81
2022/09/16 02:37:22;;;;;;;0.00;0.00;;;11.80;99.90;;;;;;5088583;28;20373;-81
2022/09/16 02:39:56;;;;;;;0.00;0.00;;;11.80;99.90;;;;;;5071969;28;20114;-81
2022/09/16 02:42:22;;;;;;;0.00;0.00;;;11.80;99.90;;;;;;5089148;28;20393;-81
2022/09/16 02:44:52;;;;;;;0.00;0.00;;;11.70;99.90;;;;;;5088504;28;20044;-81
2022/09/16 02:47:20;;;;;;;0.00;0.00;;;11.70;99.90;;;;;;5038233;28;20036;-81
2022/09/16 02:50:03;;;;;;;0.00;0.00;;;11.70;99.90;;;;;;5088325;28;20052;-81
2022/09/16 02:52:35;;;;;;;0.00;0.00;;;11.70;99.90;;;;;;5088306;28;20091;-81
2022/09/16 02:55:30;;;;;;;0.00;0.00;;;11.70;99.90;;;;;;5088730;28;20049;-81
2022/09/16 02:57:56;;;;;;;0.00;0.00;;;11.70;99.90;;;;;;5020283;28;20131;-81
2022/09/16 03:00:24;;;;;;;0.00;0.00;;;11.60;99.90;;;;;;5020902;28;20095;-81
2022/09/16 03:02:52;;;;;;;0.00;0.00;;;11.60;99.90;;;;;;5020423;28;20067;-81
2022/09/16 03:05:17;;;;;;;0.00;0.00;;;11.60;99.90;;;;;;5036535;28;20099;-81
2022/09/16 03:07:43;;;;;;;0.00;0.00;;;11.60;99.90;;;;;;5019649;28;20057;-81
2022/09/16 03:10:13;;;;;;;0.00;0.00;;;11.50;99.90;;;;;;5037290;28;20045;-81
2022/09/16 03:12:42;;;;;;;0.00;0.00;;;11.40;99.90;;;;;;5036814;28;20044;-81
2022/09/16 03:15:35;;;;;;;0.00;0.00;;;11.40;99.90;;;;;;5036679;28;20114;-81
2022/09/16 03:18:32;;;;;;;0.00;0.00;;;11.40;99.90;;;;;;5036601;28;20576;-81
2022/09/16 03:21:32;;;;;;;0.00;0.00;;;11.40;99.90;;;;;;5036659;28;20140;-81
2022/09/16 03:24:16;;;;;;;0.00;0.00;;;11.30;99.90;;;;;;4923189;28;20142;-81
2022/09/16 03:27:07;;;;;;;0.00;0.00;;;11.30;99.90;;;;;;4939048;29;20058;-81
2022/09/16 03:29:59;;;;;;;0.00;0.00;;;11.30;99.90;;;;;;4923553;29;20078;-81
2022/09/16 03:32:32;;;;;;;0.00;0.00;;;11.30;99.90;;;;;;4938813;29;20503;-81
2022/09/16 03:35:21;;;;;;;0.00;0.00;;;11.30;99.90;;;;;;4937876;28;20058;-81
2022/09/16 03:37:48;;;;;;;0.00;0.00;;;11.30;99.90;;;;;;4977262;28;20055;-81
2022/09/16 03:40:17;;;;;;;0.00;0.00;;;11.40;99.90;;;;;;4977013;28;20069;-81
2022/09/16 03:42:44;;;;;;;0.00;0.00;;;11.30;99.90;;;;;;4977764;28;20058;-81
2022/09/16 03:45:17;;;;;;;0.00;0.00;;;11.30;99.90;;;;;;4976906;28;20104;-81
2022/09/16 03:47:45;;;;;;;0.00;0.00;;;11.40;99.90;;;;;;4977265;28;20435;-81
2022/09/16 03:50:10;;;;;;;0.00;0.00;;;11.40;99.90;;;;;;4977306;28;20046;-81
2022/09/16 03:52:36;;;;;;;0.00;0.00;;;11.40;99.90;;;;;;4977271;28;20050;-81
2022/09/16 03:55:03;;;;;;;0.00;0.00;;;11.40;99.90;;;;;;4976539;28;20050;-81
2022/09/16 03:57:29;;;;;;;0.00;0.00;;;11.40;99.90;;;;;;4960906;28;20046;-81
2022/09/16 03:59:55;;;;;;;0.00;0.00;;;11.40;99.90;;;;;;5028043;28;20488;-81
2022/09/16 04:02:20;;;;;;;0.00;0.00;;;11.40;99.90;;;;;;5055780;28;20056;-81
2022/09/16 04:04:46;;;;;;;0.00;0.00;;;11.50;99.90;;;;;;5055910;28;20048;-81
2022/09/16 04:07:12;;;;;;;0.00;0.00;;;11.40;99.90;;;;;;5055881;28;20504;-81
2022/09/16 04:09:37;;;;;;;0.00;0.00;;;11.40;99.90;;;;;;5039113;28;20052;-81
2022/09/16 04:12:06;;;;;;;1.17;0.00;;;11.40;99.90;;;;;;5038904;28;20072;-81
2022/09/16 04:14:32;;;;;;;0.00;0.00;;;11.30;99.90;;;;;;5053002;28;20053;-80
2022/09/16 04:16:58;;;;;;;0.00;0.00;;;11.30;99.90;;;;;;5052332;28;20041;-81
2022/09/16 04:19:24;;;;;;;0.00;0.00;;;11.30;99.90;;;;;;5086361;28;20549;-81
2022/09/16 04:21:50;;;;;;;0.00;0.00;;;11.30;99.90;;;;;;5069422;28;20092;-81
2022/09/16 04:24:16;;;;;;;0.10;0.10;;;11.20;99.90;;;;;;5052993;28;20132;-80
2022/09/16 04:26:42;;;;;;;0.00;0.00;;;11.20;99.90;;;;;;5086689;28;20060;-80
2022/09/16 04:29:08;;;;;;;0.00;0.00;;;11.50;99.90;;;;;;5069681;28;20045;-81
2022/09/16 04:31:34;;;;;;;0.00;0.00;;;11.20;99.90;;;;;;5086818;28;20051;-81
2022/09/16 04:34:03;;;;;;;0.00;0.00;;;11.40;99.90;;;;;;5086266;28;20400;-80
2022/09/16 04:36:29;;;;;;;0.00;0.00;;;11.30;99.90;;;;;;5069567;28;20049;-81
2022/09/16 04:38:55;;;;;;;0.00;0.00;;;11.40;99.90;;;;;;5052672;28;20047;-81
2022/09/16 04:41:23;;;;;;;0.00;0.00;;;11.50;99.90;;;;;;5069675;28;20048;-81
2022/09/16 04:43:56;;;;;;;0.00;0.00;;;11.40;99.90;;;;;;5036012;28;20056;-81
2022/09/16 04:46:24;;;;;;;0.08;0.00;;;12.30;99.90;;;;;;5086526;28;20049;-81
2022/09/16 04:48:51;;;;;;;0.00;0.00;;;11.30;99.90;;;;;;5069069;28;20488;-81
2022/09/16 04:51:18;;;;;;;0.00;0.00;;;11.30;99.90;;;;;;5069307;28;20057;-81
2022/09/16 04:53:44;;;;;;;0.00;0.00;;;11.20;99.90;;;;;;5069014;28;20049;-81
2022/09/16 04:56:24;;;;;;;0.00;0.00;;;11.30;99.90;;;;;;5085622;28;20137;-81
2022/09/16 04:58:52;;;;;;;0.00;0.00;;;11.40;99.90;;;;;;5069002;28;20048;-81
2022/09/16 05:01:23;;;;;;;0.00;0.00;;;11.10;99.90;;;;;;5069944;28;20061;-81
2022/09/16 05:03:52;;;;;;;0.00;0.00;;;11.10;99.90;;;;;;5069391;28;20045;-81
2022/09/16 05:06:26;;;;;;;0.00;0.00;;;11.00;99.90;;;;;;5069120;28;20044;-81
2022/09/16 05:08:53;;;;;;;0.00;0.00;;;11.00;99.90;;;;;;5086080;28;20513;-81
2022/09/16 05:11:22;;;;;;;0.00;0.00;;;11.10;99.90;;;;;;5068004;28;20524;-80
2022/09/16 05:13:48;;;;;;;0.00;0.00;;;11.10;99.90;;;;;;5067394;28;20044;-80
2022/09/16 05:16:16;;;;;;;0.03;0.03;;;11.00;99.90;;;;;;5067245;28;20401;-80
2022/09/16 05:18:43;;;;;;;0.00;0.00;;;11.00;99.90;;;;;;5035389;28;20045;-80
2022/09/16 05:21:12;;;;;;;0.00;0.00;;;11.10;99.90;;;;;;5069125;28;20049;-80
2022/09/16 05:23:39;;;;;;;0.00;0.00;;;11.00;99.90;;;;;;5035777;28;20053;-80
2022/09/16 05:26:11;;;;;;;0.00;0.00;;;11.00;99.90;;;;;;5086314;28;20084;-80
2022/09/16 05:28:37;;;;;;;0.00;0.00;;;10.90;99.90;;;;;;5069809;28;20041;-80
2022/09/16 05:31:15;;;;;;;0.00;0.00;;;10.90;99.90;;;;;;5073132;28;20493;-80
2022/09/16 05:33:46;;;;;;;2.50;0.98;;;11.00;99.90;;;;;;5090256;28;20057;-80
2022/09/16 05:36:17;;;;;;;0.00;0.00;;;10.90;99.90;;;;;;5072941;28;20060;-80
2022/09/16 05:38:43;;;;;;;0.00;0.00;;;10.90;99.90;;;;;;5073347;28;20389;-80
2022/09/16 05:41:09;;;;;;;3.40;0.10;;;11.00;99.90;;;;;;5072929;28;20158;-80
2022/09/16 05:43:35;;;;;;;0.00;0.00;;;11.10;99.90;;;;;;5089615;28;20059;-80
2022/09/16 05:46:02;;;;;;;0.00;0.00;;;10.90;99.90;;;;;;5072978;28;20122;-80
2022/09/16 05:48:28;;;;;;;0.00;0.00;;;11.00;99.90;;;;;;5089853;28;20041;-80
2022/09/16 05:51:02;;;;;;;0.00;0.00;;;10.90;99.90;;;;;;5073142;28;20044;-80
2022/09/16 05:53:29;;;;;;;0.00;0.00;;;11.00;99.90;;;;;;5039435;28;20045;-80
2022/09/16 05:56:07;;;;;;;0.00;0.00;;;10.90;99.90;;;;;;5089266;28;20060;-80
2022/09/16 05:58:34;;;;;;;0.20;0.00;;;10.80;99.90;;;;;;5089802;28;20057;-80
2022/09/16 06:01:17;;;;;;;0.00;0.00;;;11.00;99.90;;;;;;5072672;28;20051;-80
2022/09/16 06:03:45;;;;;;;0.00;0.00;;;10.80;99.90;;;;;;5072568;28;20052;-80
2022/09/16 06:06:32;;;;;;;0.00;0.00;;;10.90;99.90;;;;;;5072520;28;20139;-80
2022/09/16 06:09:19;;;;;;;0.00;0.00;;;10.80;99.90;;;;;;5073071;28;20099;-80
2022/09/16 06:11:48;;;;;;;0.73;0.35;;;10.90;99.90;;;;;;5038301;28;20401;-80
2022/09/16 06:14:15;;;;;;;0.35;0.20;;;10.90;99.90;;;;;;5089412;28;20112;-80
2022/09/16 06:16:41;;;;;;;0.00;0.00;;;10.90;99.90;;;;;;5038905;28;20041;-80
2022/09/16 06:19:10;;;;;;;0.00;0.00;;;11.00;99.90;;;;;;5072284;28;20083;-80
2022/09/16 06:21:36;;;;;;;0.00;0.00;;;11.00;99.90;;;;;;5089042;28;20507;-80
2022/09/16 06:24:02;;;;;;;0.00;0.00;;;11.20;99.90;;;;;;5039144;28;20078;-80
2022/09/16 06:26:28;;;;;;;0.00;0.00;;;11.10;99.90;;;;;;5072241;28;20083;-80
2022/09/16 06:28:54;;;;;;;0.00;0.00;;;11.20;99.90;;;;;;5072009;28;20040;-80
2022/09/16 06:31:23;;;;;;;0.00;0.00;;;11.40;99.90;;;;;;5088875;28;20082;-80
2022/09/16 06:33:49;;;;;;;0.00;0.00;;;11.50;99.90;;;;;;5071905;28;20084;-80
2022/09/16 06:36:30;;;;;;;0.00;0.00;;;11.50;99.90;;;;;;5071820;28;20041;-80
2022/09/16 06:38:56;;;;;;;0.00;0.00;;;11.40;99.90;;;;;;5055090;28;20516;-80
2022/09/16 06:41:22;;;;;;;0.17;0.15;;;11.50;99.90;;;;;;5054373;28;20053;-80
2022/09/16 06:43:50;;;;;;;0.00;0.00;;;11.50;99.90;;;;;;5088616;28;20037;-80
2022/09/16 06:46:27;;;;;;;0.00;0.00;;;11.60;99.90;;;;;;5088609;28;20044;-80
2022/09/16 06:48:55;;;;;;;0.00;0.00;;;12.00;99.90;;;;;;5089092;28;20071;-80
2022/09/16 06:51:29;;;;;;;0.00;0.00;;;12.30;99.90;;;;;;5071562;28;20085;-80
2022/09/16 06:53:59;;;;;;;0.00;0.00;;;11.90;99.90;;;;;;5071530;28;20049;-80
2022/09/16 06:56:26;;;;;;;0.00;0.00;;;11.90;99.90;;;;;;5071113;28;20132;-80
2022/09/16 06:58:52;;;;;;;0.00;0.00;;;11.90;99.90;;;;;;5071488;28;20045;-80
2022/09/16 07:01:24;;;;;;;0.00;0.00;;;12.00;99.90;;;;;;5071551;28;20049;-80
2022/09/16 07:03:51;;;;;;;0.00;0.00;;;11.70;99.90;;;;;;5071393;28;20070;-80
2022/09/16 07:06:19;;;;;;;0.00;0.00;;;12.10;99.90;;;;;;5088451;28;20051;-80
2022/09/16 07:08:45;;;;;;;0.00;0.00;;;12.50;99.90;;;;;;5054593;28;20389;-80
2022/09/16 07:11:18;;;;;;;0.85;0.52;;;12.70;99.90;;;;;;5071882;28;20071;-80
2022/09/16 07:13:46;;;;;;;0.00;0.00;;;13.00;99.90;;;;;;5071185;28;20045;-80
2022/09/16 07:16:16;;;;;;;0.00;0.00;;;13.20;99.90;;;;;;5071265;28;20091;-80
2022/09/16 07:18:42;;;;;;;0.00;0.00;;;13.40;99.90;;;;;;5088001;28;20080;-80
2022/09/16 07:21:19;;;;;;;0.00;0.00;;;13.40;99.90;;;;;;5071067;28;20084;-80
2022/09/16 07:23:47;;;;;;;0.00;0.00;;;13.50;99.90;;;;;;5071141;28;20049;-80
2022/09/16 07:26:18;;;;;;;0.00;0.00;;;13.70;99.90;;;;;;5070485;28;20080;-80
2022/09/16 07:28:46;;;;;;;0.00;0.00;;;13.70;99.90;;;;;;5088090;28;20435;-80
2022/09/16 07:31:20;;;;;;;0.00;0.00;;;13.80;99.90;;;;;;5070388;28;20513;-80
2022/09/16 07:33:49;;;;;;;0.10;0.10;;;13.70;99.90;;;;;;5070617;28;20045;-80
2022/09/16 07:36:18;;;;;;;1.45;0.85;;;13.80;99.90;;;;;;5053692;28;20094;-80
2022/09/16 07:38:44;;;;;;;0.00;0.00;;;13.60;99.90;;;;;;5087500;28;20045;-80
2022/09/16 07:41:16;;;;;;;0.00;0.00;;;13.80;99.90;;;;;;5087606;28;20477;-80
2022/09/16 07:43:42;;;;;;;0.10;0.10;;;13.70;99.90;;;;;;5087686;28;20087;-80
2022/09/16 07:46:10;;;;;;;4.90;0.65;;;13.80;99.90;;;;;;5070331;28;20489;-80
2022/09/16 07:48:36;;;;;;;0.00;0.00;;;13.80;99.90;;;;;;5087307;28;20084;-80
2022/09/16 07:51:28;;;;;;;0.00;0.00;;;13.80;99.90;;;;;;5070409;28;20053;-80
2022/09/16 07:54:01;;;;;;;0.47;0.47;;;13.70;99.90;;;;;;5069434;28;20543;-80
2022/09/16 07:56:29;;;;;;;0.00;0.00;;;13.70;99.90;;;;;;5086663;28;20057;-80
2022/09/16 07:58:56;;;;;;;0.00;0.00;;;13.60;99.90;;;;;;5070160;28;20041;-80
2022/09/16 08:01:22;;;;;;;0.10;0.10;;;13.70;99.90;;;;;;5070715;28;20063;-80
2022/09/16 08:03:49;;;;;;;4.32;0.38;;;13.70;99.90;;;;;;5070208;28;20051;-80
2022/09/16 08:06:21;;;;;;;0.63;0.35;;;13.70;99.90;;;;;;5086750;28;20484;-80
2022/09/16 08:08:47;;;;;;;0.00;0.00;;;13.70;99.90;;;;;;5053412;28;20048;-80
2022/09/16 08:11:14;;;;;;;0.10;0.10;;;13.80;99.90;;;;;;5070059;28;20140;-80
2022/09/16 08:13:41;;;;;;;0.52;0.30;;;13.80;99.90;;;;;;5086859;28;20048;-80
2022/09/16 08:16:11;;;;;;;0.08;0.00;;;13.80;99.90;;;;;;5070218;28;20072;-80
2022/09/16 08:18:37;;;;;;;0.00;0.00;;;13.90;99.90;;;;;;5069945;28;20049;-80
2022/09/16 08:21:21;;;;;;;0.00;0.00;;;14.00;99.90;;;;;;5069914;28;20044;-80
2022/09/16 08:23:47;;;;;;;0.00;0.00;;;14.00;99.90;;;;;;5069888;28;20049;-80
2022/09/16 08:26:14;;;;;;;0.08;0.08;;;14.10;99.90;;;;;;5087225;28;20094;-80
2022/09/16 08:28:42;;;;;;;0.00;0.00;;;14.30;99.90;;;;;;5086631;28;20129;-80
2022/09/16 08:31:08;;;;;;;0.00;0.00;;;14.30;99.90;;;;;;5069690;28;20067;-80
2022/09/16 08:33:34;;;;;;;0.08;0.08;;;14.40;99.90;;;;;;5069585;28;20037;-80
2022/09/16 08:36:03;;;;;;;0.00;0.00;;;14.30;99.90;;;;;;5069655;28;20095;-80
2022/09/16 08:38:30;;;;;;;0.73;0.10;;;14.50;99.90;;;;;;5052867;28;20066;-80
2022/09/16 08:41:07;;;;;;;0.10;0.10;;;14.50;99.90;;;;;;5069217;28;20527;-80
2022/09/16 08:43:41;;;;;;;2.70;0.63;;;14.70;99.90;;;;;;5086249;28;20045;-80
2022/09/16 08:46:31;;;;;;;0.00;0.00;;;14.80;99.90;;;;;;5069646;28;20089;-79
2022/09/16 08:49:15;;;;;;;0.00;0.00;;;14.80;99.90;;;;;;5069398;28;20095;-80
2022/09/16 08:51:41;;;;;;;0.00;0.00;;;15.00;99.90;;;;;;5086474;28;20044;-80
2022/09/16 08:54:14;;;;;;;1.23;0.88;;;15.10;99.90;;;;;;5069365;28;20041;-80
2022/09/16 08:56:43;;;;;;;0.00;0.00;;;15.10;99.90;;;;;;5068856;28;20057;-80
2022/09/16 08:59:16;;;;;;;0.00;0.00;;;15.20;99.90;;;;;;5086095;28;20052;-80
2022/09/16 09:01:54;;;;;;;0.32;0.32;;;15.30;99.90;;;;;;5086816;28;20048;-80
2022/09/16 09:04:20;;;;;;;0.47;0.20;;;15.50;99.90;;;;;;5086232;28;20106;-80
2022/09/16 09:07:05;;;;;;;5.10;0.47;;;15.50;99.90;;;;;;5086245;28;20488;-80
2022/09/16 09:09:55;;;;;;;0.00;0.00;;;15.70;99.90;;;;;;5086145;28;20558;-80
2022/09/16 09:12:38;;;;;;;4.88;0.65;;;15.80;99.90;;;;;;5069469;28;20057;-80
2022/09/16 09:15:17;;;;;;;0.00;0.00;;;16.00;99.90;;;;;;5035838;28;20053;-80
2022/09/16 09:18:08;;;;;;;0.45;0.20;;;16.30;99.90;;;;;;5085880;28;20045;-80
2022/09/16 09:20:55;;;;;;;0.10;0.10;;;16.40;99.90;;;;;;5069765;28;20126;-80
2022/09/16 09:23:43;;;;;;;0.00;0.00;;;16.30;99.90;;;;;;5069544;28;20041;-80
2022/09/16 09:26:35;;;;;;;0.00;0.00;;;16.10;99.90;;;;;;5069215;28;20123;-80
2022/09/16 09:29:05;;;;;;;0.25;0.10;;;15.70;99.90;;;;;;5086650;28;20045;-80
2022/09/16 09:31:41;;;;;;;0.00;0.00;;;15.50;99.90;;;;;;5069435;28;20409;-80
2022/09/16 09:34:42;;;;;;;0.00;0.00;;;15.30;99.90;;;;;;5069126;28;20045;-80
2022/09/16 09:37:11;;;;;;;0.00;0.00;;;15.30;99.90;;;;;;5085921;28;20049;-80
2022/09/16 09:39:58;;;;;;;0.00;0.00;;;15.30;99.90;;;;;;5069552;28;20041;-80
2022/09/16 09:42:29;;;;;;;2.95;0.70;;;15.80;99.90;;;;;;5068989;28;20051;-80
2022/09/16 09:45:03;;;;;;;2.63;1.25;;;16.00;99.90;;;;;;5068972;28;20045;-80
2022/09/16 09:47:39;;;;;;;0.00;0.00;;;16.20;99.90;;;;;;5086034;28;20048;-80
2022/09/16 09:50:18;;;;;;;0.00;0.00;;;16.30;99.90;;;;;;5086307;28;20041;-80
2022/09/16 09:52:50;;;;;;;0.00;0.00;;;16.50;99.90;;;;;;5069120;28;20483;-81
2022/09/16 09:55:20;;;;;;;0.00;0.00;;;16.70;99.90;;;;;;5068660;28;20488;-80
2022/09/16 09:58:01;;;;;;;0.00;0.00;;;16.80;99.50;;;;;;5085312;28;20111;-80
2022/09/16 10:00:27;;;;;;;0.08;0.08;;;16.90;99.90;;;;;;5069212;28;20501;-81
2022/09/16 10:03:10;;;;;;;0.00;0.00;;;17.10;99.70;;;;;;5085593;28;20095;-81
2022/09/16 10:05:36;;;;;;;0.00;0.00;;;17.20;99.90;;;;;;5068872;28;20044;-80
2022/09/16 10:08:25;;;;;;;1.35;0.28;;;17.40;99.90;;;;;;5068351;28;20041;-81
2022/09/16 10:10:53;;;;;;;0.00;0.00;;;17.60;99.10;;;;;;5085357;28;20041;-81
2022/09/16 10:13:21;;;;;;;0.00;0.00;;;17.70;97.70;;;;;;5035453;28;20463;-81
2022/09/16 10:15:48;;;;;;;0.00;0.00;;;17.80;97.70;;;;;;5069214;28;20045;-81
2022/09/16 10:18:25;;;;;;;0.00;0.00;;;17.90;96.30;;;;;;5088512;28;20407;-81
2022/09/16 10:21:17;;;;;;;0.00;0.00;;;17.90;96.40;;;;;;5072856;28;20041;-81
2022/09/16 10:23:56;;;;;;;0.00;0.00;;;17.80;97.40;;;;;;5054284;28;20504;-80
2022/09/16 10:26:27;;;;;;;0.20;0.20;;;17.80;96.30;;;;;;5089180;28;20045;-81
2022/09/16 10:29:02;;;;;;;0.00;0.00;;;18.10;95.20;;;;;;5088887;28;20098;-81
2022/09/16 10:31:36;;;;;;;0.00;0.00;;;18.00;94.30;;;;;;5089164;28;20049;-81
2022/09/16 10:34:04;;;;;;;0.10;0.10;;;18.10;92.70;;;;;;5072222;28;20417;-80
2022/09/16 10:36:33;;;;;;;2.33;0.70;;;18.30;93.90;;;;;;5088943;28;20049;-80
2022/09/16 10:39:02;;;;;;;1.17;0.30;;;18.50;93.00;;;;;;5088714;28;20048;-80
2022/09/16 10:41:39;;;;;;;0.20;0.10;;;18.70;92.30;;;;;;5071719;28;20062;-81
2022/09/16 10:44:23;;;;;;;0.00;0.00;;;18.60;91.20;;;;;;5071873;28;20149;-81
2022/09/16 10:47:04;;;;;;;0.05;0.00;;;18.30;92.00;;;;;;5071810;28;20099;-80
2022/09/16 10:49:56;;;;;;;0.00;0.00;;;18.10;92.90;;;;;;5071479;28;20381;-81
2022/09/16 10:52:27;;;;;;;0.00;0.00;;;17.50;95.70;;;;;;5038874;28;20049;-80
2022/09/16 10:54:55;;;;;;;0.00;0.00;;;16.90;97.70;;;;;;5071532;28;20106;-81
2022/09/16 10:57:30;;;;;;;0.00;0.00;;;16.50;99.90;;;;;;5071110;28;20049;-81
2022/09/16 11:00:17;;;;;;;0.00;0.00;;;16.20;99.90;;;;;;5088463;28;20045;-81
2022/09/16 11:02:52;;;;;;;0.00;0.00;;;16.40;99.90;;;;;;5072227;28;20385;-81
2022/09/16 11:05:45;;;;;;;0.10;0.03;;;16.40;99.90;;;;;;5071806;28;20060;-81
2022/09/16 11:08:19;;;;;;;0.00;0.00;;;16.40;99.90;;;;;;5071341;28;20473;-82
2022/09/16 11:10:57;;;;;;;0.00;0.00;;;16.30;99.90;;;;;;5088204;28;20049;-81
2022/09/16 11:13:32;;;;;;;0.00;0.00;;;16.60;99.90;;;;;;5054447;28;20128;-81
2022/09/16 11:16:18;;;;;;;;;;;16.90;99.90;;;;;;5071754;28;20501;-81
2022/09/16 11:18:59;;;;;;;;;;;17.20;99.90;;;;;;5088566;28;20020;-81
2022/09/16 11:21:36;;;;;;;0.75;0.28;;;17.50;99.90;;;;;;5088023;28;19974;-81
2022/09/16 11:24:07;;;;;;;0.00;0.00;;;17.30;99.00;;;;;;5088219;28;20053;-80
2022/09/16 11:27:01;;;;;;;0.00;0.00;;;16.80;98.90;;;;;;5070663;28;20052;-81
2022/09/16 11:30:01;;;;;;;0.00;0.00;;;16.40;98.80;;;;;;5068519;28;20061;-80
2022/09/16 11:32:44;;;;;;;0.00;0.00;;;16.30;99.90;;;;;;5036511;28;20052;-81
2022/09/16 11:35:39;;;;;;;0.00;0.00;;;16.50;99.90;;;;;;5019540;28;20146;-81
2022/09/16 11:38:25;;;;;;;0.10;0.03;;;17.00;99.90;;;;;;5019836;28;20052;-81
2022/09/16 11:41:28;;;;;;;0.00;0.00;;;17.40;99.90;;;;;;5020198;28;20045;-81
2022/09/16 11:44:12;;;;;;;0.00;0.00;;;17.70;99.90;;;;;;5036155;28;20512;-81
2022/09/16 11:46:53;;;;;;;0.20;0.20;;;18.00;99.10;;;;;;5036297;28;20049;-80
2022/09/16 11:49:51;;;;;;;0.00;0.00;;;18.20;97.30;;;;;;5019378;28;20099;-80
2022/09/16 11:52:40;;;;;;;0.00;0.00;;;18.50;98.50;;;;;;4973969;28;20088;-80
2022/09/16 11:55:25;;;;;;;0.00;0.00;;;18.70;97.60;;;;;;4974380;28;20440;-81
2022/09/16 11:57:55;;;;;;;;;;;19.00;95.40;;;;;;4957756;28;20054;-80
2022/09/16 12:00:21;;;;;;;0.00;0.00;;;19.00;92.20;;;;;;4957631;28;20394;-80
2022/09/16 12:03:07;;;;;;;0.00;0.00;;;19.00;93.40;;;;;;4957781;28;20058;-80
2022/09/16 12:05:44;;;;;;;0.32;0.32;;;19.10;92.80;;;;;;4957965;28;20154;-80
2022/09/16 12:08:27;;;;;;;0.00;0.00;;;19.20;91.10;;;;;;4961153;28;20529;-80
2022/09/16 12:11:01;;;;;;;0.90;0.30;;;19.40;92.80;;;;;;4977051;28;20109;-80
2022/09/16 12:13:37;;;;;;;0.00;0.00;;;19.30;90.30;;;;;;4993348;28;20086;-80
2022/09/16 12:16:13;;;;;;;0.00;0.00;;;19.20;90.90;;;;;;4976997;28;20073;-80
2022/09/16 12:18:48;;;;;;;0.00;0.00;;;18.90;90.90;;;;;;4960990;28;20060;-80
2022/09/16 12:21:21;;;;;;;0.00;0.00;;;18.60;91.10;;;;;;4960973;28;20079;-80
2022/09/16 12:23:58;;;;;;;0.00;0.00;;;18.60;91.00;;;;;;4977340;28;20445;-80
2022/09/16 12:26:29;;;;;;;0.00;0.00;;;18.90;91.70;;;;;;4960700;28;20058;-80
2022/09/16 12:29:30;;;;;;;0.08;0.08;;;19.10;91.50;;;;;;5011418;28;20053;-80
2022/09/16 12:32:13;;;;;;;0.10;0.00;;;19.30;88.50;;;;;;5051956;28;20061;-80
2022/09/16 12:34:48;;;;;;;0.10;0.05;;;19.50;86.60;;;;;;5035899;28;20439;-80
2022/09/16 12:37:16;;;;;;;;;;;19.40;83.50;;;;;;5019034;28;20049;-80
2022/09/16 12:39:41;;;;;;;8.25;0.85;;;19.30;83.00;;;;;;5018254;28;19982;-80
2022/09/16 12:42:36;;;;;;;0.00;0.00;;;19.20;84.80;;;;;;5035382;28;20519;-80
2022/09/16 12:45:25;;;;;;;0.00;0.00;;;18.50;83.40;;;;;;5018552;28;20415;-80
2022/09/16 12:48:21;;;;;;;0.00;0.00;;;17.60;90.00;;;;;;5051573;28;20511;-80
2022/09/16 12:51:33;;;;;;;0.00;0.00;;;16.90;92.60;;;;;;5035236;28;20052;-80
2022/09/16 12:54:43;;;;;;;0.00;0.00;;;16.30;94.40;;;;;;4973093;28;20058;-80
2022/09/16 12:57:29;;;;;;;0.00;0.00;;;16.30;96.80;;;;;;4956485;28;20059;-81
2022/09/16 13:00:13;;;;;;;0.00;0.00;;;16.70;98.30;;;;;;4972972;28;20534;-80
2022/09/16 13:03:03;;;;;;;0.00;0.00;;;17.20;97.50;;;;;;4973210;28;20054;-80
2022/09/16 13:05:35;;;;;;;0.00;0.00;;;17.50;96.70;;;;;;4956974;28;20066;-80
2022/09/16 13:08:17;;;;;;;0.00;0.00;;;17.70;97.10;;;;;;4962073;28;20511;-80
2022/09/16 13:10:43;;;;;;;0.20;0.10;;;17.90;96.60;;;;;;4959814;28;20065;-80
2022/09/16 13:13:18;;;;;;;0.00;0.00;;;18.20;95.80;;;;;;5008834;28;20042;-80
2022/09/16 13:15:57;;;;;;;0.17;0.17;;;18.40;96.60;;;;;;4975930;28;20046;-80
2022/09/16 13:18:36;;;;;;;0.35;0.35;;;18.50;95.30;;;;;;4959772;28;20054;-80
2022/09/16 13:21:31;;;;;;;0.00;0.00;;;18.40;95.10;;;;;;4960282;28;20145;-81
2022/09/16 13:24:04;;;;;;;0.00;0.00;;;18.20;95.80;;;;;;4991554;28;20049;-80